Time;durP1;ratioP1;P1;durP2;ratioP2;P2;SDS_P1;SDS_P2;PMS_P1;PMS_P2;Temp;Humidity;BMP_temperature;BMP_pressure;BME280_temperature;BME280_humidity;BME280_pressure;Samples;Min_cycle;Max_cycle;Signal;HPM_P1;HPM_P2
2023/03/24 00:00:38;;;;;;;5.15;3.00;;;9.90;99.90;;;;;;8228251;28;20039;-75
2023/03/24 00:04:41;;;;;;;5.32;3.17;;;10.00;99.90;;;;;;8215341;28;20029;-76
2023/03/24 00:08:42;;;;;;;4.88;3.08;;;10.00;99.90;;;;;;8227142;28;20117;-77
2023/03/24 00:12:44;;;;;;;7.95;3.63;;;10.20;99.90;;;;;;8227386;28;20118;-76
2023/03/24 00:16:45;;;;;;;4.82;3.00;;;10.40;99.90;;;;;;8228470;28;20041;-76
2023/03/24 00:20:46;;;;;;;3.40;2.50;;;10.90;99.90;;;;;;8226972;28;20030;-76
2023/03/24 00:24:46;;;;;;;5.90;2.92;;;10.90;99.90;;;;;;8226857;28;20062;-78
2023/03/24 00:28:48;;;;;;;5.45;3.30;;;10.70;99.90;;;;;;8226826;28;20034;-78
2023/03/24 00:32:48;;;;;;;4.25;3.08;;;10.60;99.90;;;;;;8221959;28;20073;-79
2023/03/24 00:36:50;;;;;;;5.50;3.42;;;10.40;99.90;;;;;;8228074;28;20479;-79
2023/03/24 00:40:51;;;;;;;5.03;3.13;;;10.30;99.90;;;;;;8226598;28;20604;-78
2023/03/24 00:44:52;;;;;;;6.15;3.72;;;10.60;99.90;;;;;;8226964;28;20031;-78
2023/03/24 00:49:05;;;;;;;4.75;3.08;;;10.40;99.90;;;;;;8226339;28;20026;-78
2023/03/24 00:53:05;;;;;;;6.32;3.47;;;10.30;99.90;;;;;;8226828;28;20023;-78
2023/03/24 00:57:07;;;;;;;6.35;3.70;;;10.20;99.90;;;;;;8226817;28;20027;-78
2023/03/24 01:01:07;;;;;;;7.13;3.53;;;10.20;99.90;;;;;;8223452;28;20110;-79
2023/03/24 01:05:08;;;;;;;5.07;3.58;;;10.20;99.90;;;;;;8206358;28;20046;-78
2023/03/24 01:09:09;;;;;;;5.20;3.53;;;10.20;99.90;;;;;;8226460;28;20026;-76
2023/03/24 01:13:10;;;;;;;5.57;3.50;;;10.20;99.90;;;;;;8225353;28;20019;-77
2023/03/24 01:17:11;;;;;;;5.35;3.13;;;10.20;99.90;;;;;;8225786;28;20019;-75
2023/03/24 01:21:12;;;;;;;6.43;3.38;;;10.20;99.90;;;;;;8220611;28;20039;-76
2023/03/24 01:25:17;;;;;;;5.40;3.63;;;10.10;99.90;;;;;;8226482;28;20222;-76
2023/03/24 01:29:18;;;;;;;5.25;3.33;;;10.20;99.90;;;;;;8225754;28;20487;-75
2023/03/24 01:33:19;;;;;;;6.07;3.90;;;10.50;99.90;;;;;;8221710;28;20081;-76
2023/03/24 01:37:22;;;;;;;9.25;3.17;;;10.80;99.90;;;;;;8222905;28;20381;-75
2023/03/24 01:41:23;;;;;;;6.05;3.17;;;10.70;99.90;;;;;;8226048;28;20037;-76
2023/03/24 01:45:39;;;;;;;6.43;3.92;;;10.90;99.90;;;;;;8226152;28;20031;-76
2023/03/24 01:49:49;;;;;;;5.35;3.38;;;11.00;99.90;;;;;;8225901;28;20488;-76
2023/03/24 01:53:52;;;;;;;5.97;3.50;;;10.60;99.90;;;;;;8217951;28;20110;-76
2023/03/24 01:57:57;;;;;;;5.20;3.15;;;10.40;99.90;;;;;;8225944;28;20039;-76
2023/03/24 02:02:02;;;;;;;6.90;3.22;;;10.20;99.90;;;;;;8221238;28;20396;-75
2023/03/24 02:06:03;;;;;;;7.18;3.40;;;10.00;99.90;;;;;;8208643;28;20011;-77
2023/03/24 02:10:08;;;;;;;5.68;3.63;;;10.00;99.90;;;;;;8226573;28;20487;-76
2023/03/24 02:14:10;;;;;;;6.15;3.60;;;9.70;99.90;;;;;;8225433;28;20039;-76
2023/03/24 02:18:36;;;;;;;8.70;3.78;;;9.80;99.90;;;;;;8225904;28;20038;-76
2023/03/24 02:22:56;;;;;;;6.18;3.72;;;9.70;99.90;;;;;;8225885;28;20023;-76
2023/03/24 02:27:09;;;;;;;6.90;3.75;;;9.60;99.90;;;;;;8220830;28;20105;-76
2023/03/24 02:31:33;;;;;;;5.53;3.72;;;10.00;99.90;;;;;;8228544;28;20078;-78
2023/03/24 02:35:50;;;;;;;5.53;3.40;;;10.20;99.90;;;;;;8230694;28;20030;-78
2023/03/24 02:39:58;;;;;;;6.88;3.25;;;10.30;99.90;;;;;;8224890;28;20027;-78
2023/03/24 02:44:24;;;;;;;5.63;3.63;;;10.20;99.90;;;;;;8232659;28;20436;-78
2023/03/24 02:48:35;;;;;;;5.30;3.45;;;10.40;99.90;;;;;;8227848;28;20039;-78
2023/03/24 02:52:47;;;;;;;4.28;3.30;;;10.50;99.90;;;;;;8230765;28;20043;-79
2023/03/24 02:57:05;;;;;;;6.30;3.30;;;10.50;99.90;;;;;;8222044;28;20479;-75
2023/03/24 03:01:18;;;;;;;5.05;3.20;;;10.50;99.90;;;;;;8227501;28;20031;-76
2023/03/24 03:05:34;;;;;;;4.07;3.13;;;10.90;99.90;;;;;;8214134;28;20027;-76
2023/03/24 03:09:42;;;;;;;5.57;3.00;;;11.00;99.90;;;;;;8217630;28;20030;-75
2023/03/24 03:14:14;;;;;;;4.88;3.20;;;11.00;99.90;;;;;;8215922;28;20019;-76
2023/03/24 03:18:24;;;;;;;5.47;2.97;;;10.80;99.90;;;;;;8201883;28;20042;-76
2023/03/24 03:22:31;;;;;;;5.50;2.90;;;10.60;99.90;;;;;;8204701;28;20109;-76
2023/03/24 03:26:33;;;;;;;5.35;3.22;;;10.70;99.90;;;;;;8213751;28;20126;-77
2023/03/24 03:30:38;;;;;;;4.57;2.92;;;10.50;99.90;;;;;;8228848;28;20039;-76
2023/03/24 03:34:45;;;;;;;4.57;3.08;;;10.40;99.90;;;;;;8221427;28;20396;-76
2023/03/24 03:39:00;;;;;;;4.15;3.03;;;10.50;99.90;;;;;;8229169;28;20533;-76
2023/03/24 03:43:01;;;;;;;4.55;2.75;;;10.60;99.90;;;;;;8229362;28;20019;-77
2023/03/24 03:47:03;;;;;;;5.32;3.28;;;11.30;99.90;;;;;;8230698;28;20046;-76
2023/03/24 03:51:03;;;;;;;4.80;2.83;;;11.50;99.90;;;;;;8229078;28;20046;-76
2023/03/24 03:55:06;;;;;;;4.70;2.42;;;11.80;99.90;;;;;;8230132;28;20652;-76
2023/03/24 03:59:09;;;;;;;4.82;3.03;;;12.10;99.90;;;;;;8229026;28;20039;-77
2023/03/24 04:03:18;;;;;;;4.50;2.45;;;12.20;99.90;;;;;;8217943;28;20018;-76
2023/03/24 04:07:43;;;;;;;4.78;2.58;;;12.30;99.90;;;;;;8229614;28;20023;-78
2023/03/24 04:12:19;;;;;;;3.70;2.60;;;12.30;99.90;;;;;;8219068;28;20044;-78
2023/03/24 04:16:43;;;;;;;4.97;2.90;;;12.30;99.90;;;;;;8212089;28;20503;-78
2023/03/24 04:21:19;;;;;;;6.00;3.10;;;12.30;99.90;;;;;;8217975;28;20447;-78
2023/03/24 04:26:00;;;;;;;5.63;3.20;;;12.20;99.90;;;;;;8204614;28;20038;-79
2023/03/24 04:30:14;;;;;;;4.37;3.03;;;12.30;99.90;;;;;;8188226;28;20037;-79
2023/03/24 04:34:37;;;;;;;5.43;3.03;;;12.10;99.90;;;;;;8222718;28;20540;-77
2023/03/24 04:38:38;;;;;;;4.80;3.00;;;11.90;99.90;;;;;;8228016;28;20034;-79
2023/03/24 04:42:51;;;;;;;4.00;3.05;;;12.00;99.90;;;;;;8227608;28;20030;-78
2023/03/24 04:46:56;;;;;;;4.97;2.88;;;11.90;99.90;;;;;;8222126;28;20031;-78
2023/03/24 04:51:03;;;;;;;5.25;3.45;;;11.70;99.90;;;;;;8226231;28;20027;-78
2023/03/24 04:55:26;;;;;;;4.07;3.00;;;11.60;99.90;;;;;;8211760;28;20406;-78
2023/03/24 04:59:29;;;;;;;4.18;3.08;;;11.60;99.90;;;;;;8213494;28;20023;-78
2023/03/24 05:03:30;;;;;;;3.80;2.83;;;11.40;99.90;;;;;;8214503;28;20109;-78
2023/03/24 05:07:31;;;;;;;4.18;3.05;;;11.50;99.90;;;;;;8226382;28;20053;-78
2023/03/24 05:11:32;;;;;;;4.07;2.95;;;11.60;99.90;;;;;;8226139;28;20030;-78
2023/03/24 05:15:33;;;;;;;6.05;3.15;;;11.50;99.90;;;;;;8216388;28;20031;-79
2023/03/24 05:19:35;;;;;;;5.45;2.83;;;11.40;99.90;;;;;;8207569;28;20027;-79
2023/03/24 05:23:35;;;;;;;4.75;2.90;;;11.10;99.90;;;;;;8206402;28;20523;-78
2023/03/24 05:27:36;;;;;;;5.32;3.00;;;10.90;99.90;;;;;;8211288;28;20023;-78
2023/03/24 05:31:36;;;;;;;4.22;2.90;;;10.80;99.90;;;;;;8217738;28;20039;-79
2023/03/24 05:35:37;;;;;;;4.40;3.13;;;10.80;99.90;;;;;;8223926;28;20506;-78
2023/03/24 05:39:38;;;;;;;4.50;3.00;;;10.70;99.90;;;;;;8210907;28;20512;-77
2023/03/24 05:43:38;;;;;;;4.70;3.08;;;10.90;99.90;;;;;;8221882;28;20099;-78
2023/03/24 05:47:39;;;;;;;5.55;3.40;;;10.80;99.90;;;;;;8215913;28;20027;-78
2023/03/24 05:51:40;;;;;;;4.03;3.05;;;10.70;99.90;;;;;;8225744;28;20062;-78
2023/03/24 05:55:40;;;;;;;4.22;3.15;;;10.70;99.90;;;;;;8206372;28;20018;-78
2023/03/24 05:59:41;;;;;;;4.95;2.75;;;10.80;99.90;;;;;;8226279;28;20066;-79
2023/03/24 06:03:41;;;;;;;4.28;3.03;;;11.00;99.90;;;;;;8216454;28;20039;-78
2023/03/24 06:07:42;;;;;;;5.38;2.78;;;11.10;99.90;;;;;;8229321;28;20027;-79
2023/03/24 06:11:43;;;;;;;5.80;2.70;;;11.30;99.90;;;;;;8232082;28;20023;-78
2023/03/24 06:15:45;;;;;;;3.67;2.30;;;11.70;99.90;;;;;;8225055;28;20035;-78
2023/03/24 06:19:48;;;;;;;4.97;2.28;;;11.90;99.90;;;;;;8211461;28;20055;-78
2023/03/24 06:23:49;;;;;;;4.10;2.30;;;12.10;99.90;;;;;;8202313;28;20723;-78
2023/03/24 06:27:50;;;;;;;2.78;2.08;;;12.30;99.90;;;;;;8222899;28;20031;-78
2023/03/24 06:31:51;;;;;;;3.40;2.40;;;12.10;99.90;;;;;;8211043;28;20057;-78
2023/03/24 06:35:52;;;;;;;3.15;2.28;;;12.10;99.90;;;;;;8228405;28;20026;-77
2023/03/24 06:39:52;;;;;;;2.70;2.15;;;12.10;99.90;;;;;;8232013;28;20049;-77
2023/03/24 06:43:53;;;;;;;3.20;2.17;;;12.10;99.90;;;;;;8219748;28;20030;-78
2023/03/24 06:47:56;;;;;;;3.05;2.03;;;11.90;99.90;;;;;;8225383;28;20035;-78
2023/03/24 06:51:57;;;;;;;2.90;2.50;;;12.00;99.90;;;;;;8229946;28;20038;-77
2023/03/24 06:55:57;;;;;;;4.00;2.08;;;12.00;99.90;;;;;;8230112;28;20440;-78
2023/03/24 06:59:58;;;;;;;5.63;3.10;;;12.10;99.90;;;;;;8216370;28;20065;-79
2023/03/24 07:03:59;;;;;;;4.78;2.70;;;12.10;99.90;;;;;;8207799;28;20116;-78
2023/03/24 07:07:59;;;;;;;2.97;2.25;;;12.10;99.90;;;;;;8207058;28;20038;-78
2023/03/24 07:12:02;;;;;;;4.68;2.40;;;12.10;99.90;;;;;;8213676;28;20034;-78
2023/03/24 07:16:15;;;;;;;;;;;12.00;99.90;;;;;;8419855;27;20412;-77
2023/03/24 07:20:16;;;;;;;5.22;2.53;;;11.90;99.90;;;;;;8368315;28;20000;-78
2023/03/24 07:24:17;;;;;;;4.85;2.67;;;11.90;99.90;;;;;;8368503;28;20021;-77
2023/03/24 07:28:17;;;;;;;6.00;3.28;;;11.90;99.90;;;;;;8368106;28;20019;-77
2023/03/24 07:32:18;;;;;;;3.65;2.63;;;12.10;99.90;;;;;;8353378;28;20573;-77
2023/03/24 07:36:19;;;;;;;4.32;2.72;;;12.40;99.90;;;;;;8355218;28;20025;-76
2023/03/24 07:40:20;;;;;;;4.25;2.80;;;12.30;99.90;;;;;;8351208;28;20044;-78
2023/03/24 07:44:21;;;;;;;3.55;2.35;;;12.40;99.90;;;;;;8350810;28;20028;-78
2023/03/24 07:48:22;;;;;;;5.43;3.03;;;12.40;99.90;;;;;;8352269;28;20075;-77
2023/03/24 07:52:22;;;;;;;3.97;2.90;;;12.50;99.90;;;;;;8350551;28;20036;-78
2023/03/24 07:56:23;;;;;;;3.92;3.00;;;12.50;99.90;;;;;;8350369;28;20029;-78
2023/03/24 08:00:23;;;;;;;4.78;2.88;;;12.40;99.90;;;;;;8357735;28;20025;-78
2023/03/24 08:04:25;;;;;;;4.55;2.60;;;12.40;99.90;;;;;;8352323;28;20031;-77
2023/03/24 08:08:26;;;;;;;5.72;3.60;;;12.50;99.90;;;;;;8348722;28;20022;-78
2023/03/24 08:12:26;;;;;;;4.75;3.13;;;12.40;99.90;;;;;;8348999;28;20036;-78
2023/03/24 08:16:27;;;;;;;4.68;2.90;;;12.50;99.90;;;;;;8353471;28;20021;-78
2023/03/24 08:20:28;;;;;;;4.70;3.20;;;12.50;99.90;;;;;;8349344;28;20020;-78
2023/03/24 08:24:28;;;;;;;6.38;2.72;;;12.50;99.90;;;;;;8344167;28;20032;-78
2023/03/24 08:28:29;;;;;;;4.78;2.95;;;12.50;99.90;;;;;;8326058;28;20032;-78
2023/03/24 08:32:30;;;;;;;3.10;2.35;;;12.30;99.90;;;;;;8332933;28;20040;-77
2023/03/24 08:36:30;;;;;;;3.83;2.83;;;12.40;99.90;;;;;;8327190;28;20025;-77
2023/03/24 08:40:33;;;;;;;4.07;2.30;;;12.30;99.90;;;;;;8328304;28;20021;-78
2023/03/24 08:44:34;;;;;;;3.17;2.13;;;12.20;99.90;;;;;;8328082;28;20025;-78
2023/03/24 08:48:36;;;;;;;3.42;2.25;;;12.30;99.90;;;;;;8326358;28;20064;-78
2023/03/24 08:52:37;;;;;;;3.33;2.60;;;12.20;99.90;;;;;;8327054;28;20036;-78
2023/03/24 08:56:38;;;;;;;5.10;2.35;;;12.30;99.90;;;;;;8327109;28;20025;-78
2023/03/24 09:00:39;;;;;;;4.03;2.47;;;12.20;99.90;;;;;;8336749;28;20028;-77
2023/03/24 09:04:41;;;;;;;2.55;1.50;;;12.20;99.90;;;;;;8339248;28;20537;-78
2023/03/24 09:08:42;;;;;;;3.22;2.28;;;12.30;99.90;;;;;;8336862;28;20106;-78
2023/03/24 09:12:43;;;;;;;5.45;2.50;;;12.50;99.90;;;;;;8336361;28;20034;-78
2023/03/24 09:16:44;;;;;;;4.15;2.70;;;12.70;99.90;;;;;;8333948;28;20030;-78
2023/03/24 09:20:45;;;;;;;4.50;2.67;;;12.60;99.90;;;;;;8324614;28;20021;-78
2023/03/24 09:24:48;;;;;;;5.13;2.65;;;12.60;99.90;;;;;;8324996;28;20064;-78
2023/03/24 09:28:48;;;;;;;4.78;2.78;;;12.70;99.90;;;;;;8324516;28;20022;-78
2023/03/24 09:32:49;;;;;;;3.95;2.30;;;12.90;99.90;;;;;;8322254;28;20022;-78
2023/03/24 09:36:49;;;;;;;4.18;2.72;;;13.10;99.90;;;;;;8324114;28;20021;-78
2023/03/24 09:40:55;;;;;;;3.90;2.67;;;13.10;99.90;;;;;;8325595;28;20087;-77
2023/03/24 09:44:58;;;;;;;4.13;2.83;;;13.00;99.90;;;;;;8324600;28;20033;-78
2023/03/24 09:48:59;;;;;;;4.28;3.20;;;13.00;99.90;;;;;;8324476;28;20092;-78
2023/03/24 09:53:25;;;;;;;4.15;2.95;;;12.90;99.90;;;;;;8325230;28;20032;-78
2023/03/24 09:57:36;;;;;;;3.85;2.63;;;12.70;99.90;;;;;;8323682;28;20029;-78
2023/03/24 10:01:37;;;;;;;4.55;2.88;;;12.50;99.90;;;;;;8325252;28;20033;-78
2023/03/24 10:05:49;;;;;;;6.53;2.80;;;12.60;99.90;;;;;;8324131;28;20025;-78
2023/03/24 10:09:55;;;;;;;5.75;2.63;;;12.60;99.90;;;;;;8324449;28;20535;-78
2023/03/24 10:14:22;;;;;;;2.53;1.85;;;12.70;99.90;;;;;;8322829;28;20393;-78
2023/03/24 10:18:41;;;;;;;2.47;1.75;;;13.30;99.90;;;;;;8323433;28;20432;-78
2023/03/24 10:22:54;;;;;;;2.97;1.83;;;13.90;99.90;;;;;;8330087;28;20516;-79
2023/03/24 10:27:19;;;;;;;3.97;2.17;;;14.20;99.90;;;;;;8323427;28;20087;-79
2023/03/24 10:31:36;;;;;;;3.55;2.03;;;14.50;99.90;;;;;;8322814;28;20033;-80
2023/03/24 10:36:01;;;;;;;3.42;2.15;;;15.40;99.90;;;;;;8324687;28;20413;-79
2023/03/24 10:40:10;;;;;;;2.63;1.95;;;16.40;99.90;;;;;;8322348;28;20020;-78
2023/03/24 10:44:12;;;;;;;4.00;2.30;;;16.30;99.90;;;;;;8324332;28;20423;-79
2023/03/24 10:48:32;;;;;;;2.67;2.15;;;16.20;99.90;;;;;;8324917;28;20017;-79
2023/03/24 10:52:41;;;;;;;2.75;2.17;;;16.70;99.90;;;;;;8323760;28;20034;-79
2023/03/24 10:56:47;;;;;;;3.42;2.22;;;16.20;99.90;;;;;;8322623;28;20029;-79
2023/03/24 11:00:48;;;;;;;2.90;2.00;;;16.10;99.90;;;;;;8324114;28;20252;-79
2023/03/24 11:04:57;;;;;;;2.65;2.10;;;15.70;99.90;;;;;;8321901;28;20076;-79
2023/03/24 11:09:20;;;;;;;3.13;2.05;;;15.40;99.90;;;;;;8326204;28;20017;-79
2023/03/24 11:13:32;;;;;;;3.03;1.75;;;15.20;99.90;;;;;;8322185;28;20033;-78
2023/03/24 11:17:32;;;;;;;2.22;1.30;;;15.20;99.90;;;;;;8353976;28;20482;-78
2023/03/24 11:21:36;;;;;;;2.38;1.90;;;15.10;99.90;;;;;;8322208;28;20026;-79
2023/03/24 11:25:40;;;;;;;3.05;2.10;;;15.10;99.90;;;;;;8325935;28;20051;-78
2023/03/24 11:29:41;;;;;;;4.07;1.95;;;14.80;99.90;;;;;;8327400;28;20121;-78
2023/03/24 11:33:48;;;;;;;3.33;1.95;;;14.30;99.90;;;;;;8322024;28;20080;-77
2023/03/24 11:37:49;;;;;;;3.60;1.60;;;14.00;99.90;;;;;;8323615;28;20248;-77
2023/03/24 11:42:02;;;;;;;2.30;1.50;;;13.70;99.90;;;;;;8322197;28;20025;-76
2023/03/24 11:46:19;;;;;;;2.25;1.45;;;13.60;99.90;;;;;;8325563;28;20071;-77
2023/03/24 11:50:42;;;;;;;2.33;1.40;;;13.40;99.90;;;;;;8323691;28;20033;-85
2023/03/24 11:54:42;;;;;;;2.97;1.60;;;13.20;99.90;;;;;;8353373;28;20123;-88
2023/03/24 11:58:58;;;;;;;2.15;1.52;;;13.20;99.90;;;;;;8326887;28;20285;-85
2023/03/24 12:03:31;;;;;;;2.58;1.65;;;13.30;99.90;;;;;;8331605;28;20072;-86
2023/03/24 12:07:40;;;;;;;1.85;1.48;;;13.30;99.90;;;;;;8333117;28;20083;-85
2023/03/24 12:12:15;;;;;;;1.10;1.00;;;13.10;99.90;;;;;;8331845;28;20696;-85
2023/03/24 12:16:31;;;;;;;2.25;1.23;;;12.70;99.90;;;;;;8334056;28;20052;-78
2023/03/24 12:20:52;;;;;;;3.35;1.35;;;12.70;99.90;;;;;;8323604;28;20030;-77
2023/03/24 12:25:14;;;;;;;0.90;0.75;;;12.50;99.90;;;;;;8321718;28;20083;-78
2023/03/24 12:29:26;;;;;;;1.50;1.05;;;12.40;99.90;;;;;;8328691;28;20162;-78
2023/03/24 12:34:24;;;;;;;1.10;0.65;;;12.40;99.90;;;;;;8319077;28;20083;-77
2023/03/24 12:38:29;;;;;;;0.80;0.60;;;12.30;99.90;;;;;;8319753;28;20517;-78
2023/03/24 12:42:38;;;;;;;0.98;0.80;;;12.20;99.90;;;;;;8338807;28;20482;-79
2023/03/24 12:46:58;;;;;;;1.73;1.30;;;12.10;99.90;;;;;;8327436;28;20103;-78
2023/03/24 12:51:09;;;;;;;1.42;1.00;;;12.00;99.90;;;;;;8331627;28;20467;-77
2023/03/24 12:55:13;;;;;;;;;;;12.20;99.90;;;;;;8341824;28;20033;-77
2023/03/24 12:59:20;;;;;;;3.67;1.92;;;12.30;99.90;;;;;;8337020;28;19955;-78
2023/03/24 13:03:40;;;;;;;1.58;0.93;;;12.50;99.90;;;;;;8325237;28;20028;-78
2023/03/24 13:07:42;;;;;;;1.80;1.10;;;12.50;99.90;;;;;;8329699;28;20481;-78
2023/03/24 13:11:57;;;;;;;2.97;1.98;;;12.40;99.90;;;;;;8368498;28;20036;-78
2023/03/24 13:16:02;;;;;;;2.17;1.10;;;12.10;99.90;;;;;;8333129;28;20060;-78
2023/03/24 13:20:06;;;;;;;2.00;1.30;;;11.60;99.90;;;;;;8334399;28;20018;-78
2023/03/24 13:24:17;;;;;;;1.50;1.00;;;11.60;99.90;;;;;;8330715;28;20513;-78
2023/03/24 13:28:28;;;;;;;3.45;2.25;;;11.80;99.90;;;;;;8324338;28;20414;-78
2023/03/24 13:32:41;;;;;;;2.22;1.30;;;12.20;99.90;;;;;;8324901;28;20513;-79
2023/03/24 13:37:12;;;;;;;1.42;1.17;;;12.10;99.90;;;;;;8326763;28;20085;-78
2023/03/24 13:41:26;;;;;;;1.40;0.90;;;12.00;99.90;;;;;;8326696;28;20144;-78
2023/03/24 13:45:29;;;;;;;1.13;0.80;;;12.20;99.90;;;;;;8325804;28;20038;-77
2023/03/24 13:49:31;;;;;;;8.50;4.28;;;12.80;99.90;;;;;;8327338;28;20064;-78
2023/03/24 13:53:42;;;;;;;3.05;1.70;;;12.80;99.90;;;;;;8315618;28;20032;-78
2023/03/24 13:58:09;;;;;;;2.38;1.30;;;13.20;99.90;;;;;;8352579;28;20026;-77
2023/03/24 14:02:12;;;;;;;2.75;0.90;;;13.90;99.90;;;;;;8321822;28;20040;-78
2023/03/24 14:06:17;;;;;;;1.85;1.20;;;14.70;99.90;;;;;;8351814;28;20033;-77
2023/03/24 14:10:19;;;;;;;5.82;1.40;;;14.40;99.90;;;;;;8337015;28;20037;-78
2023/03/24 14:14:22;;;;;;;1.73;1.15;;;14.00;99.90;;;;;;8318170;28;20029;-78
2023/03/24 14:18:23;;;;;;;1.40;1.25;;;13.40;99.90;;;;;;8319764;28;20029;-78
2023/03/24 14:22:31;;;;;;;3.65;1.48;;;13.20;99.90;;;;;;8321606;28;20044;-79
2023/03/24 14:26:33;;;;;;;2.85;1.98;;;12.80;99.90;;;;;;8349313;28;20732;-77
2023/03/24 14:30:36;;;;;;;3.03;1.50;;;12.60;99.90;;;;;;8323180;28;20083;-78
2023/03/24 14:34:37;;;;;;;4.15;2.58;;;12.50;99.90;;;;;;8324488;28;20482;-77
2023/03/24 14:38:42;;;;;;;1.20;0.80;;;12.10;99.90;;;;;;8322963;28;20056;-78
2023/03/24 14:42:42;;;;;;;1.45;0.82;;;11.90;99.90;;;;;;8361990;28;20482;-78
2023/03/24 14:46:50;;;;;;;1.90;1.23;;;11.70;99.90;;;;;;8323800;28;20029;-78
2023/03/24 14:50:54;;;;;;;0.95;0.50;;;11.40;99.90;;;;;;8323496;28;20025;-78
2023/03/24 14:55:04;;;;;;;0.90;0.50;;;11.40;99.90;;;;;;8323814;28;20112;-79
2023/03/24 14:59:36;;;;;;;0.95;0.65;;;11.30;99.90;;;;;;8324512;28;20671;-78
2023/03/24 15:04:00;;;;;;;0.70;0.60;;;11.10;99.90;;;;;;8312154;28;20034;-77
2023/03/24 15:08:22;;;;;;;1.95;0.70;;;11.00;99.90;;;;;;8323711;28;20107;-79
2023/03/24 15:12:23;;;;;;;1.00;0.60;;;10.90;99.90;;;;;;8322501;28;20025;-79
2023/03/24 15:16:29;;;;;;;2.95;1.40;;;10.70;99.90;;;;;;8319881;28;20068;-78
2023/03/24 15:20:32;;;;;;;0.68;0.65;;;10.80;99.90;;;;;;8324448;28;20017;-78
2023/03/24 15:24:35;;;;;;;0.80;0.80;;;10.90;99.90;;;;;;8322394;28;20025;-78
2023/03/24 15:28:36;;;;;;;2.17;0.90;;;10.90;99.90;;;;;;8322737;28;20545;-77
2023/03/24 15:32:39;;;;;;;0.80;0.50;;;10.80;99.90;;;;;;8322074;28;20033;-78
2023/03/24 15:36:45;;;;;;;0.70;0.43;;;11.00;99.90;;;;;;8324292;28;20029;-79
2023/03/24 15:41:02;;;;;;;4.10;3.70;;;11.30;99.90;;;;;;8323571;28;20025;-78
2023/03/24 15:45:48;;;;;;;1.00;0.93;;;11.20;99.90;;;;;;8328113;28;20029;-79
2023/03/24 15:49:52;;;;;;;1.55;0.68;;;11.10;99.90;;;;;;8298891;28;20044;-78
2023/03/24 15:53:56;;;;;;;0.80;0.50;;;11.00;99.90;;;;;;8326223;28;20049;-78
2023/03/24 15:58:00;;;;;;;0.75;0.60;;;10.90;99.90;;;;;;8319929;28;20028;-78
2023/03/24 16:02:04;;;;;;;1.20;0.90;;;10.80;99.90;;;;;;8324493;28;20041;-79
2023/03/24 16:06:13;;;;;;;2.75;1.38;;;10.80;99.90;;;;;;8324706;28;20049;-78
2023/03/24 16:10:32;;;;;;;0.80;0.70;;;10.70;99.90;;;;;;8323336;28;20021;-79
2023/03/24 16:14:34;;;;;;;1.00;0.70;;;10.70;99.90;;;;;;8357266;28;20056;-77
2023/03/24 16:18:37;;;;;;;1.65;0.80;;;10.70;99.90;;;;;;8323947;28;20033;-77
2023/03/24 16:22:37;;;;;;;1.20;0.80;;;10.60;99.90;;;;;;8358924;28;20025;-78
2023/03/24 16:26:38;;;;;;;1.30;0.90;;;10.50;99.90;;;;;;8322792;28;20025;-79
2023/03/24 16:30:40;;;;;;;1.05;0.80;;;10.40;99.90;;;;;;8316077;28;20025;-78
2023/03/24 16:34:41;;;;;;;1.25;0.70;;;10.20;99.90;;;;;;8324902;28;20026;-78
2023/03/24 16:38:41;;;;;;;1.40;0.80;;;10.10;99.90;;;;;;8326593;28;20045;-78
2023/03/24 16:42:43;;;;;;;3.63;2.80;;;10.00;99.90;;;;;;8324711;28;20030;-79
2023/03/24 16:46:45;;;;;;;1.67;0.90;;;9.90;99.90;;;;;;8326588;28;20076;-77
2023/03/24 16:50:50;;;;;;;1.50;0.90;;;9.90;99.90;;;;;;8324609;28;20017;-78
2023/03/24 16:54:51;;;;;;;1.52;0.98;;;9.90;99.90;;;;;;8323793;28;20052;-78
2023/03/24 16:58:55;;;;;;;0.70;0.70;;;9.80;99.90;;;;;;8323957;28;20021;-79
2023/03/24 17:02:58;;;;;;;0.90;0.52;;;9.70;99.90;;;;;;8327357;28;20095;-79
2023/03/24 17:06:59;;;;;;;1.00;0.90;;;9.70;99.90;;;;;;8324238;28;20108;-78
2023/03/24 17:11:00;;;;;;;1.15;0.88;;;9.60;99.90;;;;;;8330520;28;20026;-78
2023/03/24 17:15:01;;;;;;;1.55;1.05;;;9.60;99.90;;;;;;8329008;28;20068;-77
2023/03/24 17:19:02;;;;;;;2.45;1.02;;;9.60;99.90;;;;;;8327583;28;20021;-79
2023/03/24 17:23:03;;;;;;;1.20;1.10;;;9.50;99.90;;;;;;8327698;28;20021;-78
2023/03/24 17:27:15;;;;;;;1.23;0.63;;;9.50;99.90;;;;;;8322886;28;20087;-79
2023/03/24 17:31:16;;;;;;;1.00;0.60;;;9.40;99.90;;;;;;8320202;28;20041;-78
2023/03/24 17:35:19;;;;;;;1.67;0.70;;;9.30;99.90;;;;;;8323206;28;20485;-78
2023/03/24 17:39:20;;;;;;;1.23;0.75;;;9.40;99.90;;;;;;8323294;28;20029;-78
2023/03/24 17:43:20;;;;;;;1.13;0.73;;;9.30;99.90;;;;;;8323543;28;20052;-77
2023/03/24 17:47:21;;;;;;;1.05;0.70;;;9.20;99.90;;;;;;8324685;28;20030;-77
2023/03/24 17:51:21;;;;;;;1.55;1.13;;;9.20;99.90;;;;;;8353750;28;20053;-79
2023/03/24 17:55:22;;;;;;;1.73;0.98;;;9.20;99.90;;;;;;8352982;28;20018;-79
2023/03/24 17:59:22;;;;;;;2.38;0.77;;;9.20;99.90;;;;;;8317815;28;20095;-77
2023/03/24 18:03:24;;;;;;;1.85;0.93;;;9.10;99.90;;;;;;8323170;28;20040;-77
2023/03/24 18:07:25;;;;;;;1.40;0.80;;;8.90;99.90;;;;;;8322540;28;20303;-79
2023/03/24 18:11:26;;;;;;;2.10;0.73;;;8.80;99.90;;;;;;8322270;28;20029;-78
2023/03/24 18:15:26;;;;;;;0.68;0.55;;;8.60;99.90;;;;;;8332339;28;20056;-77
2023/03/24 18:19:27;;;;;;;2.20;1.30;;;8.50;99.90;;;;;;8324856;28;20030;-78
2023/03/24 18:23:28;;;;;;;1.38;1.00;;;8.50;99.90;;;;;;8320720;28;20033;-78
2023/03/24 18:27:29;;;;;;;1.30;0.98;;;8.60;99.90;;;;;;8323705;28;20032;-77
2023/03/24 18:31:30;;;;;;;1.95;1.08;;;8.60;99.90;;;;;;8321862;28;20025;-77
2023/03/24 18:35:31;;;;;;;0.88;0.57;;;8.60;99.90;;;;;;8323164;28;20033;-78
2023/03/24 18:39:33;;;;;;;1.10;0.88;;;8.70;99.90;;;;;;8323446;28;20028;-77
2023/03/24 18:43:36;;;;;;;1.02;0.77;;;8.60;99.90;;;;;;8323690;28;20658;-78
2023/03/24 18:47:36;;;;;;;1.25;0.90;;;8.70;99.90;;;;;;8323659;28;20505;-79
2023/03/24 18:51:37;;;;;;;0.82;0.80;;;8.70;99.90;;;;;;8323116;28;20037;-78
2023/03/24 18:55:48;;;;;;;1.63;1.05;;;8.70;99.90;;;;;;8323821;28;20045;-77
2023/03/24 18:59:49;;;;;;;1.27;0.75;;;8.70;99.90;;;;;;8319639;28;20013;-77
2023/03/24 19:03:51;;;;;;;2.38;0.70;;;8.70;99.90;;;;;;8321180;28;20144;-78
2023/03/24 19:07:51;;;;;;;1.35;0.80;;;8.70;99.90;;;;;;8325009;28;20028;-78
2023/03/24 19:11:52;;;;;;;1.10;0.80;;;8.70;99.90;;;;;;8323127;28;20521;-78
2023/03/24 19:15:55;;;;;;;1.30;1.00;;;8.70;99.90;;;;;;8323191;28;20040;-77
2023/03/24 19:19:56;;;;;;;4.28;2.42;;;8.60;99.90;;;;;;8323327;28;20105;-78
2023/03/24 19:23:57;;;;;;;5.30;3.00;;;8.60;99.90;;;;;;8322376;28;20400;-78
2023/03/24 19:27:58;;;;;;;2.08;0.73;;;8.60;99.90;;;;;;8322567;28;20017;-79
2023/03/24 19:31:58;;;;;;;4.03;2.38;;;8.50;99.90;;;;;;8324715;28;20418;-77
2023/03/24 19:35:59;;;;;;;1.27;0.90;;;8.40;99.90;;;;;;8355700;28;20018;-77
2023/03/24 19:40:00;;;;;;;1.48;0.70;;;8.30;99.90;;;;;;8323474;28;20481;-78
2023/03/24 19:44:00;;;;;;;1.25;1.00;;;8.30;99.90;;;;;;8322570;28;20045;-78
2023/03/24 19:48:01;;;;;;;1.15;0.60;;;8.20;99.90;;;;;;8323247;28;20037;-78
2023/03/24 19:52:03;;;;;;;2.72;0.90;;;8.10;99.90;;;;;;8330330;28;20044;-78
2023/03/24 19:56:05;;;;;;;1.58;0.80;;;8.00;99.90;;;;;;8335267;28;20030;-77
2023/03/24 20:00:08;;;;;;;1.38;0.80;;;7.90;99.90;;;;;;8328586;28;20041;-78
2023/03/24 20:04:09;;;;;;;1.15;0.70;;;7.80;99.90;;;;;;8322835;28;20100;-76
2023/03/24 20:08:10;;;;;;;0.93;0.70;;;7.80;99.90;;;;;;8322901;28;20048;-78
2023/03/24 20:12:10;;;;;;;1.50;0.90;;;7.80;99.90;;;;;;8322696;28;20051;-78
2023/03/24 20:16:11;;;;;;;1.15;0.63;;;7.70;99.90;;;;;;8323529;28;20033;-78
2023/03/24 20:20:12;;;;;;;1.70;0.90;;;7.50;99.90;;;;;;8323243;28;20029;-77
2023/03/24 20:24:13;;;;;;;1.05;0.68;;;7.40;99.90;;;;;;8329238;28;20139;-77
2023/03/24 20:28:14;;;;;;;1.83;0.90;;;7.40;99.90;;;;;;8327883;28;20036;-77
2023/03/24 20:32:15;;;;;;;1.45;1.00;;;7.40;99.90;;;;;;8328922;28;20057;-77
2023/03/24 20:36:15;;;;;;;1.30;0.85;;;7.30;99.90;;;;;;8329528;28;20025;-78
2023/03/24 20:40:16;;;;;;;0.93;0.50;;;7.30;99.90;;;;;;8328964;28;20018;-77
2023/03/24 20:44:17;;;;;;;1.40;0.90;;;7.20;99.90;;;;;;8327919;28;20405;-77
2023/03/24 20:48:17;;;;;;;3.10;1.00;;;7.10;99.90;;;;;;8324999;28;20021;-76
2023/03/24 20:52:19;;;;;;;1.13;0.85;;;6.80;99.90;;;;;;8325083;28;20022;-76
2023/03/24 20:56:20;;;;;;;0.93;0.68;;;6.80;99.90;;;;;;8325192;28;20026;-76
2023/03/24 21:00:21;;;;;;;1.75;1.00;;;6.90;99.90;;;;;;8325446;28;20013;-76
2023/03/24 21:04:22;;;;;;;1.55;1.17;;;6.90;99.90;;;;;;8323204;28;20104;-76
2023/03/24 21:08:22;;;;;;;2.33;1.15;;;6.90;99.90;;;;;;8324021;28;20087;-75
2023/03/24 21:12:23;;;;;;;3.83;0.90;;;6.90;99.90;;;;;;8324191;28;20102;-76
2023/03/24 21:16:25;;;;;;;1.45;1.00;;;6.80;99.90;;;;;;8323791;28;20018;-76
2023/03/24 21:20:27;;;;;;;4.28;1.23;;;6.80;99.90;;;;;;8323825;28;20029;-76
2023/03/24 21:24:27;;;;;;;2.80;1.20;;;6.90;99.90;;;;;;8324614;28;20528;-77